createdAt,value
2019-02-09T00:01:57.801Z,2.40
2019-02-09T00:04:28.065Z,2.40
2019-02-09T00:06:58.411Z,2.50
2019-02-09T00:09:29.044Z,2.50
2019-02-09T00:12:01.516Z,2.50
2019-02-09T00:14:31.808Z,2.50
2019-02-09T00:17:01.895Z,2.50
2019-02-09T00:19:31.979Z,2.40
2019-02-09T00:22:02.175Z,2.40
2019-02-09T00:24:32.496Z,2.30
2019-02-09T00:27:02.630Z,2.30
2019-02-09T00:29:34.858Z,2.20
2019-02-09T00:32:07.595Z,2.10
2019-02-09T00:34:37.908Z,2.10
2019-02-09T00:37:08.310Z,2.00
2019-02-09T00:39:38.435Z,1.90
2019-02-09T00:42:08.717Z,1.80
2019-02-09T00:44:38.820Z,1.70
2019-02-09T00:47:09.560Z,1.70
2019-02-09T00:49:39.661Z,1.60
2019-02-09T00:52:09.843Z,1.60
2019-02-09T00:54:40.091Z,1.50
2019-02-09T00:57:10.239Z,1.50
2019-02-09T00:59:40.405Z,1.40
2019-02-09T01:02:11.925Z,1.40
2019-02-09T01:04:42.055Z,1.40
2019-02-09T01:07:12.149Z,1.40
2019-02-09T01:09:42.307Z,1.30
2019-02-09T01:12:14.279Z,1.20
2019-02-09T01:14:44.728Z,1.10
2019-02-09T01:17:15.423Z,1.10
2019-02-09T01:19:45.583Z,1.10
2019-02-09T01:22:15.684Z,1.10
2019-02-09T01:24:46.076Z,1.10
2019-02-09T01:27:16.240Z,1.00
2019-02-09T01:29:46.415Z,1.10
2019-02-09T01:32:17.275Z,1.00
2019-02-09T01:34:49.587Z,1.00
2019-02-09T01:37:20.816Z,0.90
2019-02-09T01:39:50.945Z,0.90
2019-02-09T01:42:22.257Z,0.90
2019-02-09T01:44:52.372Z,0.90
2019-02-09T01:47:22.633Z,0.80
2019-02-09T01:49:52.748Z,0.90
2019-02-09T01:52:27.520Z,0.90
2019-02-09T01:54:57.713Z,1.10
2019-02-09T01:57:27.848Z,1.20
2019-02-09T01:59:57.958Z,1.30
2019-02-09T02:02:28.111Z,1.30
2019-02-09T02:04:59.408Z,1.40
2019-02-09T02:07:29.598Z,1.50
2019-02-09T02:09:59.727Z,1.60
2019-02-09T02:12:29.865Z,1.70
2019-02-09T02:15:00.284Z,1.80
2019-02-09T02:17:30.400Z,1.80
2019-02-09T02:20:00.897Z,2.00
2019-02-09T02:22:31.045Z,2.20
2019-02-09T02:25:01.181Z,2.40
2019-02-09T02:27:31.351Z,2.60
2019-02-09T02:30:01.460Z,2.70
2019-02-09T02:32:31.586Z,2.80
2019-02-09T02:35:01.767Z,2.90
2019-02-09T02:37:31.867Z,3.20
2019-02-09T02:40:02.000Z,3.30
2019-02-09T02:42:32.126Z,3.40
2019-02-09T02:45:02.226Z,3.60
2019-02-09T02:47:32.461Z,3.70
2019-02-09T02:50:04.677Z,3.80
2019-02-09T02:52:34.790Z,3.80
2019-02-09T02:55:05.900Z,3.90
2019-02-09T02:57:36.072Z,4.00
2019-02-09T03:00:10.678Z,4.10
2019-02-09T03:02:43.873Z,4.10
2019-02-09T03:05:17.050Z,4.00
2019-02-09T03:07:48.230Z,4.10
2019-02-09T03:10:18.963Z,4.20
2019-02-09T03:12:49.124Z,4.20
2019-02-09T03:15:21.501Z,4.40
2019-02-09T03:17:51.919Z,4.50
2019-02-09T03:20:22.113Z,4.80
2019-02-09T03:22:52.208Z,4.90
2019-02-09T03:25:30.492Z,5.30
2019-02-09T03:28:00.650Z,5.60
2019-02-09T03:30:45.767Z,5.80
2019-02-09T03:33:03.471Z,5.80
2019-02-09T03:35:33.688Z,5.90
2019-02-09T03:38:03.882Z,6.00
2019-02-09T03:40:33.972Z,6.10
2019-02-09T03:43:04.093Z,6.20
2019-02-09T03:45:34.330Z,6.30
2019-02-09T03:48:05.338Z,6.30
2019-02-09T03:50:35.431Z,6.30
2019-02-09T03:53:05.654Z,6.40
2019-02-09T03:55:35.776Z,6.40
2019-02-09T03:58:05.924Z,6.40
2019-02-09T04:00:36.146Z,6.40
2019-02-09T04:03:06.274Z,6.40
2019-02-09T04:05:36.366Z,6.50
2019-02-09T04:08:06.566Z,6.50
2019-02-09T04:10:36.731Z,6.60
2019-02-09T04:13:06.824Z,6.60
2019-02-09T04:15:37.207Z,6.60
2019-02-09T04:18:07.847Z,6.60
2019-02-09T04:20:38.005Z,6.60
2019-02-09T04:23:08.105Z,6.60
2019-02-09T04:25:38.252Z,6.60
2019-02-09T04:28:08.397Z,6.60
2019-02-09T04:30:40.892Z,6.60
2019-02-09T04:33:11.692Z,6.60
2019-02-09T04:35:41.910Z,6.60
2019-02-09T04:38:12.114Z,6.60
2019-02-09T04:40:42.227Z,6.60
2019-02-09T04:43:12.375Z,6.60
2019-02-09T04:45:42.471Z,6.60
2019-02-09T04:48:12.655Z,6.50
2019-02-09T04:50:42.954Z,6.40
2019-02-09T04:53:13.107Z,6.30
2019-02-09T04:55:43.376Z,6.20
2019-02-09T04:58:13.503Z,6.20
2019-02-09T05:00:43.591Z,6.10
2019-02-09T05:03:13.844Z,6.10
2019-02-09T05:05:43.956Z,6.10
2019-02-09T05:11:06.863Z,6.00
2019-02-09T05:13:37.220Z,6.00
2019-02-09T05:20:07.588Z,5.90
2019-02-09T05:26:37.299Z,6.10
2019-02-09T05:29:09.198Z,5.90
2019-02-09T05:31:39.449Z,5.90
2019-02-09T05:34:09.842Z,5.90
2019-02-09T05:36:40.020Z,5.90
2019-02-09T05:39:10.190Z,6.00
2019-02-09T05:41:40.424Z,5.90
2019-02-09T05:44:10.681Z,5.90
2019-02-09T05:46:40.843Z,6.00
2019-02-09T05:49:11.006Z,6.00
2019-02-09T05:51:41.160Z,5.90
2019-02-09T05:54:11.249Z,6.00
2019-02-09T05:56:41.502Z,5.90
2019-02-09T05:59:12.019Z,5.90
2019-02-09T06:01:42.127Z,5.90
2019-02-09T06:04:14.323Z,6.00
2019-02-09T06:06:44.491Z,6.00
2019-02-09T06:09:14.759Z,6.00
2019-02-09T06:11:44.893Z,6.00
2019-02-09T06:14:15.092Z,6.00
2019-02-09T06:16:45.319Z,6.00
2019-02-09T06:19:15.497Z,6.10
2019-02-09T06:21:45.666Z,6.20
2019-02-09T06:24:15.880Z,6.20
2019-02-09T06:26:46.088Z,6.20
2019-02-09T06:29:19.296Z,6.20
2019-02-09T06:31:52.116Z,6.20
2019-02-09T06:34:24.252Z,6.20
2019-02-09T06:36:54.695Z,6.30
2019-02-09T06:39:27.473Z,6.30
2019-02-09T06:41:59.420Z,6.30
2019-02-09T06:44:29.599Z,6.30
2019-02-09T06:46:59.861Z,6.30
2019-02-09T06:49:30.042Z,6.30
2019-02-09T06:52:00.243Z,6.30
2019-02-09T06:54:30.361Z,6.40
2019-02-09T06:57:00.468Z,6.40
2019-02-09T06:59:30.655Z,6.50
2019-02-09T07:02:00.776Z,6.50
2019-02-09T07:04:31.060Z,6.50
2019-02-09T07:07:01.178Z,6.50
2019-02-09T07:09:31.297Z,6.50
2019-02-09T07:12:01.417Z,6.60
2019-02-09T07:14:31.614Z,6.60
2019-02-09T07:17:01.970Z,6.60
2019-02-09T07:19:33.003Z,6.60
2019-02-09T07:22:03.619Z,6.60
2019-02-09T07:24:35.759Z,6.50
2019-02-09T07:27:08.633Z,6.40
2019-02-09T07:29:39.437Z,6.40
2019-02-09T07:32:09.755Z,6.30
2019-02-09T07:34:39.867Z,6.30
2019-02-09T07:37:10.036Z,6.30
2019-02-09T07:39:40.294Z,6.30
2019-02-09T07:42:10.395Z,6.40
2019-02-09T07:44:40.543Z,6.50
2019-02-09T07:47:10.741Z,6.50
2019-02-09T07:49:40.872Z,6.60
2019-02-09T07:52:12.833Z,6.60
2019-02-09T07:54:43.285Z,6.60
2019-02-09T07:57:13.459Z,6.60
2019-02-09T07:59:45.682Z,6.50
2019-02-09T08:02:17.931Z,6.60
2019-02-09T08:04:48.123Z,6.60
2019-02-09T08:07:18.536Z,6.70
2019-02-09T08:09:51.108Z,6.70
2019-02-09T08:12:21.209Z,6.80
2019-02-09T08:14:51.616Z,6.90
2019-02-09T08:17:24.481Z,6.90
2019-02-09T08:19:56.639Z,7.00
2019-02-09T08:22:28.883Z,7.00
2019-02-09T08:24:59.948Z,7.10
2019-02-09T08:27:34.206Z,7.20
2019-02-09T08:30:04.989Z,7.20
2019-02-09T08:32:44.474Z,7.20
2019-02-09T08:35:22.083Z,7.30
2019-02-09T08:37:59.243Z,7.30
2019-02-09T08:40:34.305Z,7.40
2019-02-09T08:43:11.843Z,7.40
2019-02-09T08:45:43.523Z,7.40
2019-02-09T08:48:13.850Z,7.50
2019-02-09T08:50:47.648Z,7.60
2019-02-09T08:53:20.541Z,7.80
2019-02-09T08:55:50.668Z,7.80
2019-02-09T08:58:20.814Z,7.90
2019-02-09T09:00:50.983Z,8.00
2019-02-09T09:03:21.327Z,8.10
2019-02-09T09:05:52.070Z,8.10
2019-02-09T09:08:22.771Z,8.10
2019-02-09T09:10:53.592Z,8.20
2019-02-09T09:13:23.861Z,8.30
2019-02-09T09:15:57.773Z,8.60
2019-02-09T09:18:27.985Z,8.70
2019-02-09T09:21:01.005Z,8.90
2019-02-09T09:23:32.021Z,8.90
2019-02-09T09:26:02.190Z,8.80
2019-02-09T09:28:32.895Z,9.00
2019-02-09T09:31:03.140Z,9.00
2019-02-09T09:33:33.394Z,8.90
2019-02-09T09:36:03.690Z,8.90
2019-02-09T09:38:33.960Z,9.00
2019-02-09T09:41:04.971Z,8.90
2019-02-09T09:43:36.298Z,8.80
2019-02-09T09:46:06.798Z,8.90
2019-02-09T09:48:36.911Z,8.90
2019-02-09T09:51:11.459Z,8.80
2019-02-09T09:53:41.578Z,8.90
2019-02-09T09:56:11.810Z,8.90
2019-02-09T09:58:41.978Z,9.00
2019-02-09T10:01:21.749Z,8.90
2019-02-09T10:03:53.684Z,8.90
2019-02-09T10:06:23.984Z,9.00
2019-02-09T10:08:54.259Z,9.10
2019-02-09T10:11:25.182Z,9.10
2019-02-09T10:13:55.300Z,8.90
2019-02-09T10:16:26.599Z,8.90
2019-02-09T10:18:58.774Z,9.00
2019-02-09T10:21:28.942Z,9.30
2019-02-09T10:24:00.818Z,9.40
2019-02-09T10:26:31.126Z,9.60
2019-02-09T10:29:01.897Z,9.60
2019-02-09T10:31:47.477Z,9.80
2019-02-09T10:34:17.813Z,9.80
2019-02-09T10:36:47.955Z,10.00
2019-02-09T10:39:18.272Z,10.00
2019-02-09T10:41:50.392Z,9.70
2019-02-09T10:44:20.371Z,9.50
2019-02-09T10:46:50.562Z,9.60
2019-02-09T10:49:20.812Z,10.00
2019-02-09T10:51:51.047Z,10.00
2019-02-09T10:54:21.244Z,10.00
2019-02-09T10:56:51.432Z,9.80
2019-02-09T10:59:21.638Z,10.00
2019-02-09T11:01:51.942Z,9.50
2019-02-09T11:04:22.129Z,9.80
2019-02-09T11:06:52.370Z,9.90
2019-02-09T11:09:24.232Z,10.10
2019-02-09T11:11:58.621Z,9.90
2019-02-09T11:14:28.786Z,10.10
2019-02-09T11:16:59.501Z,9.90
2019-02-09T11:19:29.862Z,9.90
2019-02-09T11:22:00.013Z,10.10
2019-02-09T11:24:30.291Z,10.00
2019-02-09T11:27:00.419Z,10.20
2019-02-09T11:29:34.904Z,10.30
2019-02-09T11:32:04.033Z,10.60
2019-02-09T11:34:34.206Z,10.70
2019-02-09T11:37:04.847Z,10.50
2019-02-09T11:39:35.348Z,10.10
2019-02-09T11:42:05.769Z,10.00
2019-02-09T11:44:41.057Z,9.80
2019-02-09T11:47:09.044Z,9.90
2019-02-09T11:49:40.863Z,10.10
2019-02-09T11:52:11.008Z,10.10
2019-02-09T11:54:42.162Z,10.20
2019-02-09T11:57:13.510Z,10.00
2019-02-09T11:59:43.720Z,9.80
2019-02-09T12:02:17.746Z,9.60
2019-02-09T12:04:47.888Z,9.60
2019-02-09T12:07:18.103Z,9.30
2019-02-09T12:09:48.382Z,8.90
2019-02-09T12:12:18.643Z,8.70
2019-02-09T12:14:49.443Z,8.80
2019-02-09T12:17:22.769Z,9.00
2019-02-09T12:19:55.595Z,9.10
2019-02-09T12:22:26.035Z,9.30
2019-02-09T12:24:56.888Z,9.40
2019-02-09T12:27:27.131Z,9.30
2019-02-09T12:29:57.274Z,9.30
2019-02-09T12:32:29.031Z,9.20
2019-02-09T12:34:59.415Z,9.40
2019-02-09T12:37:30.934Z,9.20
2019-02-09T12:40:04.658Z,9.20
2019-02-09T12:42:35.133Z,9.20
2019-02-09T12:45:06.857Z,9.20
2019-02-09T12:47:38.137Z,9.20
2019-02-09T12:50:09.541Z,9.30
2019-02-09T12:52:39.722Z,9.30
2019-02-09T12:55:12.057Z,9.30
2019-02-09T12:57:43.899Z,9.40
2019-02-09T13:00:30.605Z,9.30
2019-02-09T13:03:14.770Z,9.40
2019-02-09T13:06:03.903Z,9.50
2019-02-09T13:08:33.110Z,9.40
2019-02-09T13:11:09.962Z,9.30
2019-02-09T13:13:41.978Z,9.20
2019-02-09T13:16:14.489Z,9.10
2019-02-09T13:18:48.587Z,8.80
2019-02-09T13:21:20.814Z,8.50
2019-02-09T13:23:51.147Z,8.20
2019-02-09T13:26:21.455Z,7.90
2019-02-09T13:28:54.817Z,7.90
2019-02-09T13:31:24.953Z,7.90
2019-02-09T13:33:55.327Z,7.80
2019-02-09T13:36:25.459Z,7.90
2019-02-09T13:38:55.695Z,8.00
2019-02-09T13:41:25.876Z,8.20
2019-02-09T13:43:56.196Z,8.20
2019-02-09T13:46:26.320Z,8.30
2019-02-09T13:48:57.522Z,8.40
2019-02-09T13:51:28.094Z,8.50
2019-02-09T13:53:58.605Z,8.50
2019-02-09T13:56:28.947Z,8.60
2019-02-09T13:58:59.091Z,8.80
2019-02-09T14:01:29.193Z,9.00
2019-02-09T14:03:59.351Z,8.80
2019-02-09T14:06:29.510Z,8.80
2019-02-09T14:08:59.755Z,8.90
2019-02-09T14:11:29.904Z,8.90
2019-02-09T14:14:00.124Z,8.80
2019-02-09T14:16:30.230Z,8.70
2019-02-09T14:19:00.469Z,8.80
2019-02-09T14:21:30.606Z,9.10
2019-02-09T14:24:00.889Z,9.20
2019-02-09T14:26:31.835Z,9.30
2019-02-09T14:29:02.380Z,9.10
2019-02-09T14:31:32.507Z,9.00
2019-02-09T14:34:05.092Z,9.10
2019-02-09T14:36:35.310Z,9.10
2019-02-09T14:39:10.906Z,9.20
2019-02-09T14:41:43.421Z,8.90
2019-02-09T14:44:13.653Z,9.00
2019-02-09T14:46:45.644Z,9.10
2019-02-09T14:49:17.544Z,9.20
2019-02-09T14:51:50.310Z,9.10
2019-02-09T14:54:20.475Z,9.10
2019-02-09T14:56:54.107Z,9.10
2019-02-09T14:59:24.253Z,9.10
2019-02-09T15:01:54.411Z,9.20
2019-02-09T15:04:24.555Z,9.20
2019-02-09T15:06:54.825Z,9.10
2019-02-09T15:09:24.986Z,9.00
2019-02-09T15:11:55.205Z,9.10
2019-02-09T15:14:25.375Z,9.20
2019-02-09T15:16:56.535Z,9.10
2019-02-09T15:19:38.952Z,9.10
2019-02-09T15:22:09.265Z,9.00
2019-02-09T15:24:39.604Z,9.00
2019-02-09T15:27:09.767Z,8.90
2019-02-09T15:29:39.951Z,9.00
2019-02-09T15:32:10.113Z,8.90
2019-02-09T15:34:40.267Z,8.90
2019-02-09T15:37:10.436Z,8.80
2019-02-09T15:39:40.563Z,8.80
2019-02-09T15:42:10.667Z,8.70
2019-02-09T15:44:40.955Z,8.70
2019-02-09T15:47:11.169Z,8.80
2019-02-09T15:49:41.358Z,8.80
2019-02-09T15:52:11.501Z,8.70
2019-02-09T15:54:41.618Z,8.70
2019-02-09T15:57:11.817Z,8.70
2019-02-09T15:59:41.969Z,8.70
2019-02-09T16:02:12.148Z,8.70
2019-02-09T16:04:43.215Z,8.70
2019-02-09T16:07:17.763Z,8.80
2019-02-09T16:09:47.904Z,8.70
2019-02-09T16:12:18.543Z,8.70
2019-02-09T16:14:48.661Z,8.80
2019-02-09T16:17:20.199Z,8.80
2019-02-09T16:19:51.611Z,8.80
2019-02-09T16:22:21.823Z,8.70
2019-02-09T16:24:55.973Z,8.70
2019-02-09T16:27:27.234Z,8.70
2019-02-09T16:29:57.680Z,8.60
2019-02-09T16:32:33.225Z,8.60
2019-02-09T16:35:03.224Z,8.60
2019-02-09T16:37:34.354Z,8.60
2019-02-09T16:40:06.888Z,8.60
2019-02-09T16:42:37.002Z,8.50
2019-02-09T16:45:09.863Z,8.40
2019-02-09T16:47:40.088Z,8.50
2019-02-09T16:50:14.342Z,8.40
2019-02-09T16:52:44.510Z,8.40
2019-02-09T16:55:16.750Z,8.40
2019-02-09T16:57:49.243Z,8.40
2019-02-09T17:00:28.488Z,8.30
2019-02-09T17:02:59.831Z,8.40
2019-02-09T17:05:30.170Z,8.40
2019-02-09T17:08:00.434Z,8.30
2019-02-09T17:10:32.598Z,8.30
2019-02-09T17:13:03.449Z,8.30
2019-02-09T17:15:33.711Z,8.30
2019-02-09T17:18:04.263Z,8.40
2019-02-09T17:20:36.375Z,8.40
2019-02-09T17:23:07.383Z,8.30
2019-02-09T17:25:38.072Z,8.30
2019-02-09T17:28:09.439Z,8.30
2019-02-09T17:30:40.451Z,8.30
2019-02-09T17:33:10.646Z,8.30
2019-02-09T17:35:41.381Z,8.30
2019-02-09T17:38:11.539Z,8.40
2019-02-09T17:40:44.433Z,8.40
2019-02-09T17:43:14.679Z,8.40
2019-02-09T17:45:48.359Z,8.40
2019-02-09T17:48:18.613Z,8.40
2019-02-09T17:50:48.847Z,8.40
2019-02-09T17:53:18.967Z,8.30
2019-02-09T17:55:49.818Z,8.30
2019-02-09T17:58:20.291Z,8.30
2019-02-09T18:00:54.452Z,8.20
2019-02-09T18:03:26.380Z,8.20
2019-02-09T18:05:56.566Z,8.20
2019-02-09T18:08:29.429Z,8.10
2019-02-09T18:11:01.346Z,8.00
2019-02-09T18:13:32.180Z,8.00
2019-02-09T18:16:02.839Z,8.00
2019-02-09T18:18:35.204Z,8.00
2019-02-09T18:21:05.434Z,7.90
2019-02-09T18:23:35.732Z,7.80
2019-02-09T18:26:06.637Z,7.80
2019-02-09T18:28:36.751Z,7.80
2019-02-09T18:31:07.074Z,7.80
2019-02-09T18:33:37.873Z,7.80
2019-02-09T18:36:07.967Z,7.80
2019-02-09T18:38:38.109Z,7.80
2019-02-09T18:41:08.365Z,7.70
2019-02-09T18:43:38.712Z,7.70
2019-02-09T18:46:09.005Z,7.80
2019-02-09T18:48:39.167Z,7.70
2019-02-09T18:51:09.260Z,7.60
2019-02-09T18:53:39.594Z,7.60
2019-02-09T18:56:09.739Z,7.50
2019-02-09T18:58:39.913Z,7.50
2019-02-09T19:01:10.245Z,7.50
2019-02-09T19:03:40.343Z,7.50
2019-02-09T19:06:12.716Z,7.40
2019-02-09T19:08:42.978Z,7.30
2019-02-09T19:11:14.530Z,7.30
2019-02-09T19:13:45.268Z,7.30
2019-02-09T19:16:15.421Z,7.30
2019-02-09T19:18:45.561Z,7.30
2019-02-09T19:21:17.481Z,7.20
2019-02-09T19:23:47.590Z,7.20
2019-02-09T19:26:17.970Z,7.20
2019-02-09T19:28:48.111Z,7.10
2019-02-09T19:31:18.259Z,7.10
2019-02-09T19:33:48.558Z,7.10
2019-02-09T19:36:20.251Z,7.00
2019-02-09T19:38:50.467Z,7.00
2019-02-09T19:41:21.494Z,7.00
2019-02-09T19:43:52.745Z,7.00
2019-02-09T19:46:22.928Z,7.00
2019-02-09T19:48:54.800Z,7.00
2019-02-09T19:51:24.954Z,7.10
2019-02-09T19:53:56.811Z,7.00
2019-02-09T19:56:28.484Z,7.00
2019-02-09T19:58:58.656Z,7.00
2019-02-09T20:01:28.784Z,7.00
2019-02-09T20:03:58.951Z,6.90
2019-02-09T20:06:29.095Z,6.90
2019-02-09T20:09:03.929Z,6.90
2019-02-09T20:11:35.864Z,6.90
2019-02-09T20:14:08.339Z,6.90
2019-02-09T20:16:38.457Z,6.80
2019-02-09T20:19:08.617Z,6.90
2019-02-09T20:21:40.688Z,6.80
2019-02-09T20:24:11.246Z,6.70
2019-02-09T20:26:41.391Z,6.70
2019-02-09T20:29:11.575Z,6.60
2019-02-09T20:31:41.753Z,6.70
2019-02-09T20:34:12.692Z,6.70
2019-02-09T20:36:42.874Z,6.60
2019-02-09T20:39:12.987Z,6.60
2019-02-09T20:41:43.178Z,6.70
2019-02-09T20:44:13.789Z,6.60
2019-02-09T20:46:49.079Z,6.60
2019-02-09T20:49:19.222Z,6.60
2019-02-09T20:51:50.399Z,6.50
2019-02-09T20:54:20.697Z,6.40
2019-02-09T20:56:50.833Z,6.40
2019-02-09T20:59:21.002Z,6.30
2019-02-09T21:01:51.118Z,6.30
2019-02-09T21:04:21.318Z,6.20
2019-02-09T21:06:51.437Z,6.20
2019-02-09T21:09:21.583Z,6.10
2019-02-09T21:11:51.747Z,6.10
2019-02-09T21:14:21.944Z,6.00
2019-02-09T21:16:52.110Z,6.00
2019-02-09T21:19:22.274Z,6.00
2019-02-09T21:21:55.781Z,6.00
2019-02-09T21:24:26.790Z,5.90
2019-02-09T21:26:56.924Z,5.90
2019-02-09T21:29:27.115Z,5.90
2019-02-09T21:31:58.489Z,5.90
2019-02-09T21:34:29.025Z,5.90
2019-02-09T21:36:59.188Z,5.90
2019-02-09T21:39:33.933Z,5.90
2019-02-09T21:42:02.035Z,5.90
2019-02-09T21:44:32.386Z,5.90
2019-02-09T21:47:02.517Z,5.80
2019-02-09T21:49:32.595Z,5.80
2019-02-09T21:52:02.733Z,5.80
2019-02-09T21:54:33.164Z,5.80
2019-02-09T21:57:03.282Z,5.80
2019-02-09T21:59:33.411Z,5.80
2019-02-09T22:02:03.769Z,5.70
2019-02-09T22:04:35.249Z,5.70
2019-02-09T22:07:05.651Z,5.60
2019-02-09T22:09:35.916Z,5.60
2019-02-09T22:12:15.125Z,5.50
2019-02-09T22:14:45.873Z,5.40
2019-02-09T22:17:16.410Z,5.30
2019-02-09T22:19:46.891Z,5.20
2019-02-09T22:22:17.108Z,5.30
2019-02-09T22:24:47.554Z,5.30
2019-02-09T22:27:17.841Z,5.20
2019-02-09T22:29:48.465Z,5.20
2019-02-09T22:32:19.810Z,5.10
2019-02-09T22:34:52.697Z,5.10
2019-02-09T22:37:23.025Z,5.10
2019-02-09T22:39:53.318Z,5.00
2019-02-09T22:42:23.694Z,5.10
2019-02-09T22:44:53.910Z,4.90
2019-02-09T22:47:29.118Z,4.60
2019-02-09T22:49:59.409Z,4.60
2019-02-09T22:52:29.581Z,4.30
2019-02-09T22:55:16.250Z,4.20
2019-02-09T22:57:46.640Z,4.10
2019-02-09T23:00:32.532Z,4.10
2019-02-09T23:03:02.849Z,4.10
2019-02-09T23:06:08.013Z,4.00
2019-02-09T23:08:34.317Z,3.90
2019-02-09T23:11:04.500Z,3.70
2019-02-09T23:13:34.675Z,3.80
2019-02-09T23:16:06.602Z,3.90
2019-02-09T23:18:36.798Z,3.80
2019-02-09T23:21:06.977Z,3.90
2019-02-09T23:23:37.329Z,3.80
2019-02-09T23:26:07.527Z,3.80
2019-02-09T23:28:37.688Z,3.90
2019-02-09T23:31:08.021Z,3.80
2019-02-09T23:33:38.214Z,3.90
2019-02-09T23:36:16.152Z,3.80
2019-02-09T23:38:41.850Z,3.90
2019-02-09T23:41:11.969Z,3.90
2019-02-09T23:43:42.330Z,3.70
2019-02-09T23:46:12.581Z,3.70
2019-02-09T23:48:42.731Z,3.70
2019-02-09T23:51:13.001Z,3.80
2019-02-09T23:53:43.356Z,3.70
2019-02-09T23:56:13.770Z,3.60
2019-02-09T23:58:43.967Z,3.60
